sensor_id;sensor_type;location;lat;lon;timestamp;temperature;humidity
51950;DHT22;37974;53.218;6.640;2023-02-28T00:00:26;4.10;99.90
51950;DHT22;37974;53.218;6.640;2023-02-28T00:02:52;3.80;99.90
51950;DHT22;37974;53.218;6.640;2023-02-28T00:05:19;3.40;99.90
51950;DHT22;37974;53.218;6.640;2023-02-28T00:07:46;3.40;99.90
51950;DHT22;37974;53.218;6.640;2023-02-28T00:10:14;3.40;99.90
51950;DHT22;37974;53.218;6.640;2023-02-28T00:12:40;3.80;99.90
51950;DHT22;37974;53.218;6.640;2023-02-28T00:15:09;3.80;99.90
51950;DHT22;37974;53.218;6.640;2023-02-28T00:17:35;3.50;99.90
51950;DHT22;37974;53.218;6.640;2023-02-28T00:20:00;3.50;99.90
51950;DHT22;37974;53.218;6.640;2023-02-28T00:22:28;3.60;99.90
51950;DHT22;37974;53.218;6.640;2023-02-28T00:24:53;3.50;99.90
51950;DHT22;37974;53.218;6.640;2023-02-28T00:27:19;3.80;99.90
51950;DHT22;37974;53.218;6.640;2023-02-28T00:29:46;4.50;99.90
51950;DHT22;37974;53.218;6.640;2023-02-28T00:32:12;3.70;99.90
51950;DHT22;37974;53.218;6.640;2023-02-28T00:34:38;4.40;99.90
51950;DHT22;37974;53.218;6.640;2023-02-28T00:37:05;3.40;99.90
51950;DHT22;37974;53.218;6.640;2023-02-28T00:39:32;3.50;99.90
51950;DHT22;37974;53.218;6.640;2023-02-28T00:41:58;3.40;99.90
51950;DHT22;37974;53.218;6.640;2023-02-28T00:44:24;3.40;99.90
51950;DHT22;37974;53.218;6.640;2023-02-28T00:46:49;4.10;99.90
51950;DHT22;37974;53.218;6.640;2023-02-28T00:49:15;4.10;99.90
51950;DHT22;37974;53.218;6.640;2023-02-28T00:51:40;3.50;99.90
51950;DHT22;37974;53.218;6.640;2023-02-28T00:54:06;3.50;99.90
51950;DHT22;37974;53.218;6.640;2023-02-28T00:56:32;3.50;99.90
51950;DHT22;37974;53.218;6.640;2023-02-28T00:58:57;4.60;99.90
51950;DHT22;37974;53.218;6.640;2023-02-28T01:01:23;4.00;99.90
51950;DHT22;37974;53.218;6.640;2023-02-28T01:03:49;4.00;99.90
51950;DHT22;37974;53.218;6.640;2023-02-28T01:06:14;4.30;99.90
51950;DHT22;37974;53.218;6.640;2023-02-28T01:08:40;4.20;99.90
51950;DHT22;37974;53.218;6.640;2023-02-28T01:11:09;3.50;99.90
51950;DHT22;37974;53.218;6.640;2023-02-28T01:13:35;3.50;99.90
51950;DHT22;37974;53.218;6.640;2023-02-28T01:16:01;3.50;99.90
51950;DHT22;37974;53.218;6.640;2023-02-28T01:18:27;4.40;99.90
51950;DHT22;37974;53.218;6.640;2023-02-28T01:20:54;3.60;99.90
51950;DHT22;37974;53.218;6.640;2023-02-28T01:23:20;3.60;99.90
51950;DHT22;37974;53.218;6.640;2023-02-28T01:25:49;3.80;99.90
51950;DHT22;37974;53.218;6.640;2023-02-28T01:28:15;3.80;99.90
51950;DHT22;37974;53.218;6.640;2023-02-28T01:30:41;3.60;99.90
51950;DHT22;37974;53.218;6.640;2023-02-28T01:33:06;3.60;99.90
51950;DHT22;37974;53.218;6.640;2023-02-28T01:35:33;3.60;99.90
51950;DHT22;37974;53.218;6.640;2023-02-28T01:37:59;4.40;99.90
51950;DHT22;37974;53.218;6.640;2023-02-28T01:40:25;4.20;99.90
51950;DHT22;37974;53.218;6.640;2023-02-28T01:42:50;3.60;99.90
51950;DHT22;37974;53.218;6.640;2023-02-28T01:47:55;3.60;99.90
51950;DHT22;37974;53.218;6.640;2023-02-28T01:50:26;3.60;99.90
51950;DHT22;37974;53.218;6.640;2023-02-28T01:52:54;4.30;99.90
51950;DHT22;37974;53.218;6.640;2023-02-28T01:55:22;3.70;99.90
51950;DHT22;37974;53.218;6.640;2023-02-28T01:57:52;3.60;99.90
51950;DHT22;37974;53.218;6.640;2023-02-28T02:00:22;3.60;99.90
51950;DHT22;37974;53.218;6.640;2023-02-28T02:02:55;3.60;99.90
51950;DHT22;37974;53.218;6.640;2023-02-28T02:05:24;4.30;99.90
51950;DHT22;37974;53.218;6.640;2023-02-28T02:07:54;4.20;99.90
51950;DHT22;37974;53.218;6.640;2023-02-28T02:10:27;3.70;99.90
51950;DHT22;37974;53.218;6.640;2023-02-28T02:15:42;3.70;99.90
51950;DHT22;37974;53.218;6.640;2023-02-28T02:18:17;3.70;99.90
51950;DHT22;37974;53.218;6.640;2023-02-28T02:23:44;3.70;99.90
51950;DHT22;37974;53.218;6.640;2023-02-28T02:29:17;3.70;99.90
51950;DHT22;37974;53.218;6.640;2023-02-28T02:37:02;3.70;99.90
51950;DHT22;37974;53.218;6.640;2023-02-28T02:39:58;3.70;99.90
51950;DHT22;37974;53.218;6.640;2023-02-28T02:45:07;3.70;99.90
51950;DHT22;37974;53.218;6.640;2023-02-28T02:47:35;3.70;99.90
51950;DHT22;37974;53.218;6.640;2023-02-28T02:50:06;4.60;99.90
51950;DHT22;37974;53.218;6.640;2023-02-28T02:52:43;3.80;99.90
51950;DHT22;37974;53.218;6.640;2023-02-28T02:55:11;4.10;99.90
51950;DHT22;37974;53.218;6.640;2023-02-28T02:57:59;3.80;99.90
51950;DHT22;37974;53.218;6.640;2023-02-28T03:00:32;3.80;99.90
51950;DHT22;37974;53.218;6.640;2023-02-28T03:03:01;3.90;99.90
51950;DHT22;37974;53.218;6.640;2023-02-28T03:05:32;3.80;99.90
51950;DHT22;37974;53.218;6.640;2023-02-28T03:07:59;4.20;99.90
51950;DHT22;37974;53.218;6.640;2023-02-28T03:18:40;3.70;99.90
51950;DHT22;37974;53.218;6.640;2023-02-28T03:21:23;3.60;99.90
51950;DHT22;37974;53.218;6.640;2023-02-28T03:24:04;4.30;99.90
51950;DHT22;37974;53.218;6.640;2023-02-28T03:26:34;3.60;99.90
51950;DHT22;37974;53.218;6.640;2023-02-28T03:29:21;3.70;99.90
51950;DHT22;37974;53.218;6.640;2023-02-28T03:31:48;3.50;99.90
51950;DHT22;37974;53.218;6.640;2023-02-28T03:34:17;3.70;99.90
51950;DHT22;37974;53.218;6.640;2023-02-28T03:36:48;4.30;99.90
51950;DHT22;37974;53.218;6.640;2023-02-28T03:39:21;3.70;99.90
51950;DHT22;37974;53.218;6.640;2023-02-28T03:42:00;4.00;99.90
51950;DHT22;37974;53.218;6.640;2023-02-28T03:44:34;3.40;99.90
51950;DHT22;37974;53.218;6.640;2023-02-28T03:47:04;3.40;99.90
51950;DHT22;37974;53.218;6.640;2023-02-28T03:49:40;3.40;99.90
51950;DHT22;37974;53.218;6.640;2023-02-28T03:52:11;3.40;99.90
51950;DHT22;37974;53.218;6.640;2023-02-28T03:54:42;3.90;99.90
51950;DHT22;37974;53.218;6.640;2023-02-28T03:57:18;4.20;99.90
51950;DHT22;37974;53.218;6.640;2023-02-28T03:59:52;3.40;99.90
51950;DHT22;37974;53.218;6.640;2023-02-28T04:02:19;3.40;99.90
51950;DHT22;37974;53.218;6.640;2023-02-28T04:04:45;4.00;99.90
51950;DHT22;37974;53.218;6.640;2023-02-28T04:07:14;3.70;99.90
51950;DHT22;37974;53.218;6.640;2023-02-28T04:09:41;4.20;99.90
51950;DHT22;37974;53.218;6.640;2023-02-28T04:12:07;4.20;99.90
51950;DHT22;37974;53.218;6.640;2023-02-28T04:14:32;3.30;99.90
51950;DHT22;37974;53.218;6.640;2023-02-28T04:16:58;4.10;99.90
51950;DHT22;37974;53.218;6.640;2023-02-28T04:19:24;4.10;99.90
51950;DHT22;37974;53.218;6.640;2023-02-28T04:21:51;3.30;99.90
51950;DHT22;37974;53.218;6.640;2023-02-28T04:24:20;4.10;99.90
51950;DHT22;37974;53.218;6.640;2023-02-28T04:27:23;4.30;99.90
51950;DHT22;37974;53.218;6.640;2023-02-28T04:29:55;3.10;99.90
51950;DHT22;37974;53.218;6.640;2023-02-28T04:32:21;3.80;99.90
51950;DHT22;37974;53.218;6.640;2023-02-28T04:34:58;3.30;99.90
51950;DHT22;37974;53.218;6.640;2023-02-28T04:37:24;3.20;99.90
51950;DHT22;37974;53.218;6.640;2023-02-28T04:40:14;3.20;99.90
51950;DHT22;37974;53.218;6.640;2023-02-28T04:42:40;3.20;99.90
51950;DHT22;37974;53.218;6.640;2023-02-28T04:45:06;4.20;99.90
51950;DHT22;37974;53.218;6.640;2023-02-28T04:47:35;3.20;99.90
51950;DHT22;37974;53.218;6.640;2023-02-28T04:50:01;4.00;99.90
51950;DHT22;37974;53.218;6.640;2023-02-28T04:52:27;3.20;99.90
51950;DHT22;37974;53.218;6.640;2023-02-28T04:54:53;4.50;99.90
51950;DHT22;37974;53.218;6.640;2023-02-28T04:57:19;3.60;99.90
51950;DHT22;37974;53.218;6.640;2023-02-28T04:59:44;4.20;99.90
51950;DHT22;37974;53.218;6.640;2023-02-28T05:02:10;4.20;99.90
51950;DHT22;37974;53.218;6.640;2023-02-28T05:04:36;3.00;99.90
51950;DHT22;37974;53.218;6.640;2023-02-28T05:07:10;4.20;99.90
51950;DHT22;37974;53.218;6.640;2023-02-28T05:09:36;3.00;99.90
51950;DHT22;37974;53.218;6.640;2023-02-28T05:12:02;3.80;99.90
51950;DHT22;37974;53.218;6.640;2023-02-28T05:14:28;2.90;99.90
51950;DHT22;37974;53.218;6.640;2023-02-28T05:16:54;3.50;99.90
51950;DHT22;37974;53.218;6.640;2023-02-28T05:19:31;3.50;99.90
51950;DHT22;37974;53.218;6.640;2023-02-28T05:21:57;3.60;99.90
51950;DHT22;37974;53.218;6.640;2023-02-28T05:24:22;2.90;99.90
51950;DHT22;37974;53.218;6.640;2023-02-28T05:26:50;3.60;99.90
51950;DHT22;37974;53.218;6.640;2023-02-28T05:29:19;4.00;99.90
51950;DHT22;37974;53.218;6.640;2023-02-28T05:31:45;4.00;99.90
51950;DHT22;37974;53.218;6.640;2023-02-28T05:34:11;2.80;99.90
51950;DHT22;37974;53.218;6.640;2023-02-28T05:36:40;2.80;99.90
51950;DHT22;37974;53.218;6.640;2023-02-28T05:39:12;2.10;99.90
51950;DHT22;37974;53.218;6.640;2023-02-28T05:41:40;3.90;99.90
51950;DHT22;37974;53.218;6.640;2023-02-28T05:44:06;2.80;99.90
51950;DHT22;37974;53.218;6.640;2023-02-28T05:46:34;2.70;99.90
51950;DHT22;37974;53.218;6.640;2023-02-28T05:49:00;3.80;99.90
51950;DHT22;37974;53.218;6.640;2023-02-28T05:51:26;3.50;99.90
51950;DHT22;37974;53.218;6.640;2023-02-28T05:53:52;3.30;99.90
51950;DHT22;37974;53.218;6.640;2023-02-28T05:56:18;3.00;99.90
51950;DHT22;37974;53.218;6.640;2023-02-28T05:58:43;3.60;99.90
51950;DHT22;37974;53.218;6.640;2023-02-28T06:01:34;3.90;99.90
51950;DHT22;37974;53.218;6.640;2023-02-28T06:04:08;2.60;99.90
51950;DHT22;37974;53.218;6.640;2023-02-28T06:06:34;3.30;99.90
51950;DHT22;37974;53.218;6.640;2023-02-28T06:09:00;3.40;99.90
51950;DHT22;37974;53.218;6.640;2023-02-28T06:11:27;3.80;99.90
51950;DHT22;37974;53.218;6.640;2023-02-28T06:13:57;3.90;99.90
51950;DHT22;37974;53.218;6.640;2023-02-28T06:16:25;3.90;99.90
51950;DHT22;37974;53.218;6.640;2023-02-28T06:18:51;3.70;99.90
51950;DHT22;37974;53.218;6.640;2023-02-28T06:21:18;3.60;99.90
51950;DHT22;37974;53.218;6.640;2023-02-28T06:23:44;3.20;99.90
51950;DHT22;37974;53.218;6.640;2023-02-28T06:26:10;3.90;99.90
51950;DHT22;37974;53.218;6.640;2023-02-28T06:28:36;2.60;99.90
51950;DHT22;37974;53.218;6.640;2023-02-28T06:31:07;3.90;99.90
51950;DHT22;37974;53.218;6.640;2023-02-28T06:33:33;2.60;99.90
51950;DHT22;37974;53.218;6.640;2023-02-28T06:35:59;2.60;99.90
51950;DHT22;37974;53.218;6.640;2023-02-28T06:38:45;3.50;99.90
51950;DHT22;37974;53.218;6.640;2023-02-28T06:41:11;2.60;99.90
51950;DHT22;37974;53.218;6.640;2023-02-28T06:43:40;2.80;99.90
51950;DHT22;37974;53.218;6.640;2023-02-28T06:46:09;3.50;99.90
51950;DHT22;37974;53.218;6.640;2023-02-28T06:48:35;2.90;99.90
51950;DHT22;37974;53.218;6.640;2023-02-28T06:51:05;2.50;99.90
51950;DHT22;37974;53.218;6.640;2023-02-28T06:53:32;2.50;99.90
51950;DHT22;37974;53.218;6.640;2023-02-28T06:56:05;2.50;99.90
51950;DHT22;37974;53.218;6.640;2023-02-28T06:58:32;2.40;99.90
51950;DHT22;37974;53.218;6.640;2023-02-28T07:00:57;3.60;99.90
51950;DHT22;37974;53.218;6.640;2023-02-28T07:03:23;3.00;99.90
51950;DHT22;37974;53.218;6.640;2023-02-28T07:05:49;2.40;99.90
51950;DHT22;37974;53.218;6.640;2023-02-28T07:08:15;2.90;99.90
51950;DHT22;37974;53.218;6.640;2023-02-28T07:10:41;2.50;99.90
51950;DHT22;37974;53.218;6.640;2023-02-28T07:13:07;2.40;99.90
51950;DHT22;37974;53.218;6.640;2023-02-28T07:15:34;2.70;99.90
51950;DHT22;37974;53.218;6.640;2023-02-28T07:18:00;2.90;99.90
51950;DHT22;37974;53.218;6.640;2023-02-28T07:20:35;2.40;99.90
51950;DHT22;37974;53.218;6.640;2023-02-28T07:23:01;3.80;99.90
51950;DHT22;37974;53.218;6.640;2023-02-28T07:25:28;3.70;99.90
51950;DHT22;37974;53.218;6.640;2023-02-28T07:27:55;2.40;99.90
51950;DHT22;37974;53.218;6.640;2023-02-28T07:30:21;3.40;99.90
51950;DHT22;37974;53.218;6.640;2023-02-28T07:32:47;3.60;99.90
51950;DHT22;37974;53.218;6.640;2023-02-28T07:35:13;2.60;99.90
51950;DHT22;37974;53.218;6.640;2023-02-28T07:37:41;2.50;99.90
51950;DHT22;37974;53.218;6.640;2023-02-28T07:40:09;3.10;99.90
51950;DHT22;37974;53.218;6.640;2023-02-28T07:42:37;2.60;99.90
51950;DHT22;37974;53.218;6.640;2023-02-28T07:45:04;2.40;99.90
51950;DHT22;37974;53.218;6.640;2023-02-28T07:47:30;2.60;99.90
51950;DHT22;37974;53.218;6.640;2023-02-28T07:49:57;3.60;99.90
51950;DHT22;37974;53.218;6.640;2023-02-28T07:52:23;3.70;99.90
51950;DHT22;37974;53.218;6.640;2023-02-28T07:54:50;2.70;99.90
51950;DHT22;37974;53.218;6.640;2023-02-28T07:57:16;2.70;99.90
51950;DHT22;37974;53.218;6.640;2023-02-28T07:59:42;4.00;99.90
51950;DHT22;37974;53.218;6.640;2023-02-28T08:02:13;2.90;99.90
51950;DHT22;37974;53.218;6.640;2023-02-28T08:04:39;2.90;99.90
51950;DHT22;37974;53.218;6.640;2023-02-28T08:07:05;3.60;99.90
51950;DHT22;37974;53.218;6.640;2023-02-28T08:09:31;3.00;99.90
51950;DHT22;37974;53.218;6.640;2023-02-28T08:12:00;3.20;99.90
51950;DHT22;37974;53.218;6.640;2023-02-28T08:14:25;3.10;99.90
51950;DHT22;37974;53.218;6.640;2023-02-28T08:16:51;3.30;99.90
51950;DHT22;37974;53.218;6.640;2023-02-28T08:19:17;3.30;99.90
51950;DHT22;37974;53.218;6.640;2023-02-28T08:21:43;4.50;99.90
51950;DHT22;37974;53.218;6.640;2023-02-28T08:24:08;3.90;99.90
51950;DHT22;37974;53.218;6.640;2023-02-28T08:26:37;4.50;99.90
51950;DHT22;37974;53.218;6.640;2023-02-28T08:29:03;3.60;99.90
51950;DHT22;37974;53.218;6.640;2023-02-28T08:31:34;3.60;99.90
51950;DHT22;37974;53.218;6.640;2023-02-28T08:34:06;4.70;99.90
51950;DHT22;37974;53.218;6.640;2023-02-28T08:36:35;3.90;99.90
51950;DHT22;37974;53.218;6.640;2023-02-28T08:39:01;4.20;99.90
51950;DHT22;37974;53.218;6.640;2023-02-28T08:41:30;3.90;99.90
51950;DHT22;37974;53.218;6.640;2023-02-28T08:43:58;4.40;99.90
51950;DHT22;37974;53.218;6.640;2023-02-28T08:46:34;4.10;99.90
51950;DHT22;37974;53.218;6.640;2023-02-28T08:48:59;4.10;99.90
51950;DHT22;37974;53.218;6.640;2023-02-28T08:51:44;4.10;99.90
51950;DHT22;37974;53.218;6.640;2023-02-28T08:54:10;4.10;99.90
51950;DHT22;37974;53.218;6.640;2023-02-28T08:56:38;4.10;99.90
51950;DHT22;37974;53.218;6.640;2023-02-28T08:59:04;4.80;99.90
51950;DHT22;37974;53.218;6.640;2023-02-28T09:01:30;4.20;99.90
51950;DHT22;37974;53.218;6.640;2023-02-28T09:03:58;4.70;99.90
51950;DHT22;37974;53.218;6.640;2023-02-28T09:06:25;4.30;99.90
51950;DHT22;37974;53.218;6.640;2023-02-28T09:08:51;4.30;99.90
51950;DHT22;37974;53.218;6.640;2023-02-28T09:11:18;5.60;99.90
51950;DHT22;37974;53.218;6.640;2023-02-28T09:13:45;4.80;99.90
51950;DHT22;37974;53.218;6.640;2023-02-28T09:16:14;4.40;99.90
51950;DHT22;37974;53.218;6.640;2023-02-28T09:18:40;4.50;99.90
51950;DHT22;37974;53.218;6.640;2023-02-28T09:21:08;4.60;99.90
51950;DHT22;37974;53.218;6.640;2023-02-28T09:23:34;4.60;99.90
51950;DHT22;37974;53.218;6.640;2023-02-28T09:26:16;4.70;99.90
51950;DHT22;37974;53.218;6.640;2023-02-28T09:31:14;4.80;99.90
51950;DHT22;37974;53.218;6.640;2023-02-28T09:33:43;4.90;99.90
51950;DHT22;37974;53.218;6.640;2023-02-28T09:36:10;4.90;99.90
51950;DHT22;37974;53.218;6.640;2023-02-28T09:38:42;4.90;99.90
51950;DHT22;37974;53.218;6.640;2023-02-28T09:41:14;4.90;99.90
51950;DHT22;37974;53.218;6.640;2023-02-28T09:44:01;4.90;99.90
51950;DHT22;37974;53.218;6.640;2023-02-28T09:46:35;4.90;99.90
51950;DHT22;37974;53.218;6.640;2023-02-28T09:49:07;4.80;99.90
51950;DHT22;37974;53.218;6.640;2023-02-28T09:54:12;4.80;99.90
51950;DHT22;37974;53.218;6.640;2023-02-28T09:56:55;4.80;99.90
51950;DHT22;37974;53.218;6.640;2023-02-28T09:59:31;4.80;99.90
51950;DHT22;37974;53.218;6.640;2023-02-28T10:04:51;4.90;99.90
51950;DHT22;37974;53.218;6.640;2023-02-28T10:12:44;5.00;99.90
51950;DHT22;37974;53.218;6.640;2023-02-28T10:15:14;5.00;99.90
51950;DHT22;37974;53.218;6.640;2023-02-28T10:17:43;5.10;99.90
51950;DHT22;37974;53.218;6.640;2023-02-28T10:20:11;5.00;99.90
51950;DHT22;37974;53.218;6.640;2023-02-28T10:22:56;5.10;99.90
51950;DHT22;37974;53.218;6.640;2023-02-28T10:25:26;5.10;99.90
51950;DHT22;37974;53.218;6.640;2023-02-28T10:27:55;5.10;99.90
51950;DHT22;37974;53.218;6.640;2023-02-28T10:30:24;5.20;99.90
51950;DHT22;37974;53.218;6.640;2023-02-28T10:32:56;5.20;99.90
51950;DHT22;37974;53.218;6.640;2023-02-28T10:35:25;5.20;99.90
51950;DHT22;37974;53.218;6.640;2023-02-28T10:38:10;5.20;99.90
51950;DHT22;37974;53.218;6.640;2023-02-28T10:40:40;5.30;99.90
51950;DHT22;37974;53.218;6.640;2023-02-28T10:45:58;5.40;99.90
51950;DHT22;37974;53.218;6.640;2023-02-28T10:48:33;5.50;99.90
51950;DHT22;37974;53.218;6.640;2023-02-28T10:51:00;5.50;99.90
51950;DHT22;37974;53.218;6.640;2023-02-28T10:53:28;5.60;99.90
51950;DHT22;37974;53.218;6.640;2023-02-28T10:56:14;5.60;99.90
51950;DHT22;37974;53.218;6.640;2023-02-28T10:58:50;5.70;99.90
51950;DHT22;37974;53.218;6.640;2023-02-28T11:01:23;5.70;99.90
51950;DHT22;37974;53.218;6.640;2023-02-28T11:03:50;5.80;99.90
51950;DHT22;37974;53.218;6.640;2023-02-28T11:06:24;5.70;99.90
51950;DHT22;37974;53.218;6.640;2023-02-28T11:08:57;5.80;99.90
51950;DHT22;37974;53.218;6.640;2023-02-28T11:11:27;5.80;99.90
51950;DHT22;37974;53.218;6.640;2023-02-28T11:13:56;5.80;99.90
51950;DHT22;37974;53.218;6.640;2023-02-28T11:16:33;5.90;99.90
51950;DHT22;37974;53.218;6.640;2023-02-28T11:18:59;6.00;99.90
51950;DHT22;37974;53.218;6.640;2023-02-28T11:21:29;6.10;99.90
51950;DHT22;37974;53.218;6.640;2023-02-28T11:24:02;7.00;99.90
51950;DHT22;37974;53.218;6.640;2023-02-28T11:26:39;6.40;99.90
51950;DHT22;37974;53.218;6.640;2023-02-28T11:29:19;6.40;99.90
51950;DHT22;37974;53.218;6.640;2023-02-28T11:32:19;6.50;99.90
51950;DHT22;37974;53.218;6.640;2023-02-28T11:35:17;6.50;99.90
51950;DHT22;37974;53.218;6.640;2023-02-28T11:37:52;6.60;99.90
51950;DHT22;37974;53.218;6.640;2023-02-28T11:40:36;6.60;99.90
51950;DHT22;37974;53.218;6.640;2023-02-28T11:43:36;6.60;99.90
51950;DHT22;37974;53.218;6.640;2023-02-28T11:46:41;6.60;99.90
51950;DHT22;37974;53.218;6.640;2023-02-28T12:00:06;6.40;99.90
51950;DHT22;37974;53.218;6.640;2023-02-28T12:05:45;6.50;99.90
51950;DHT22;37974;53.218;6.640;2023-02-28T12:08:49;6.70;99.90
51950;DHT22;37974;53.218;6.640;2023-02-28T12:11:28;6.70;99.90
51950;DHT22;37974;53.218;6.640;2023-02-28T12:14:00;6.90;99.90
51950;DHT22;37974;53.218;6.640;2023-02-28T12:22:05;7.00;99.90
51950;DHT22;37974;53.218;6.640;2023-02-28T12:24:51;6.90;99.90
51950;DHT22;37974;53.218;6.640;2023-02-28T12:27:21;6.90;99.90
51950;DHT22;37974;53.218;6.640;2023-02-28T12:30:17;6.90;99.90
51950;DHT22;37974;53.218;6.640;2023-02-28T12:32:52;6.50;99.90
51950;DHT22;37974;53.218;6.640;2023-02-28T12:35:35;6.90;99.90
51950;DHT22;37974;53.218;6.640;2023-02-28T12:38:12;6.90;99.90
51950;DHT22;37974;53.218;6.640;2023-02-28T12:40:45;6.90;99.90
51950;DHT22;37974;53.218;6.640;2023-02-28T12:43:13;6.90;99.90
51950;DHT22;37974;53.218;6.640;2023-02-28T12:45:55;7.00;99.90
51950;DHT22;37974;53.218;6.640;2023-02-28T12:50:51;7.00;99.90
51950;DHT22;37974;53.218;6.640;2023-02-28T12:58:45;7.40;99.90
51950;DHT22;37974;53.218;6.640;2023-02-28T13:04:52;7.70;99.90
51950;DHT22;37974;53.218;6.640;2023-02-28T13:07:35;7.80;99.90
51950;DHT22;37974;53.218;6.640;2023-02-28T13:10:05;7.70;99.90
51950;DHT22;37974;53.218;6.640;2023-02-28T13:12:36;7.70;99.90
51950;DHT22;37974;53.218;6.640;2023-02-28T13:15:07;7.00;99.90
51950;DHT22;37974;53.218;6.640;2023-02-28T13:17:39;7.60;99.90
51950;DHT22;37974;53.218;6.640;2023-02-28T13:20:21;7.60;99.90
51950;DHT22;37974;53.218;6.640;2023-02-28T13:22:50;7.50;99.90
51950;DHT22;37974;53.218;6.640;2023-02-28T13:27:50;7.50;99.90
51950;DHT22;37974;53.218;6.640;2023-02-28T13:38:44;7.30;99.90
51950;DHT22;37974;53.218;6.640;2023-02-28T13:49:26;7.30;99.90
51950;DHT22;37974;53.218;6.640;2023-02-28T13:52:12;7.30;99.90
51950;DHT22;37974;53.218;6.640;2023-02-28T13:57:44;7.40;99.90
51950;DHT22;37974;53.218;6.640;2023-02-28T14:06:15;7.50;99.90
51950;DHT22;37974;53.218;6.640;2023-02-28T14:09:02;7.50;99.90
51950;DHT22;37974;53.218;6.640;2023-02-28T14:11:32;7.50;99.90
51950;DHT22;37974;53.218;6.640;2023-02-28T14:13:59;7.50;99.90
51950;DHT22;37974;53.218;6.640;2023-02-28T14:16:36;7.50;99.90
51950;DHT22;37974;53.218;6.640;2023-02-28T14:19:13;7.50;99.90
51950;DHT22;37974;53.218;6.640;2023-02-28T14:22:03;7.40;99.90
51950;DHT22;37974;53.218;6.640;2023-02-28T14:27:16;7.30;99.90
51950;DHT22;37974;53.218;6.640;2023-02-28T14:32:25;6.90;99.90
51950;DHT22;37974;53.218;6.640;2023-02-28T14:34:57;6.80;99.90
51950;DHT22;37974;53.218;6.640;2023-02-28T14:37:30;6.70;99.90
51950;DHT22;37974;53.218;6.640;2023-02-28T14:39:59;6.60;99.90
51950;DHT22;37974;53.218;6.640;2023-02-28T14:42:37;6.50;99.90
51950;DHT22;37974;53.218;6.640;2023-02-28T14:45:19;6.50;99.90
51950;DHT22;37974;53.218;6.640;2023-02-28T14:47:46;6.50;99.90
51950;DHT22;37974;53.218;6.640;2023-02-28T14:50:23;6.60;99.90
51950;DHT22;37974;53.218;6.640;2023-02-28T14:52:53;6.70;99.90
51950;DHT22;37974;53.218;6.640;2023-02-28T14:55:19;6.80;99.90
51950;DHT22;37974;53.218;6.640;2023-02-28T14:57:54;6.90;99.90
51950;DHT22;37974;53.218;6.640;2023-02-28T15:00:24;7.00;99.90
51950;DHT22;37974;53.218;6.640;2023-02-28T15:02:50;7.00;99.90
51950;DHT22;37974;53.218;6.640;2023-02-28T15:05:23;7.00;99.90
51950;DHT22;37974;53.218;6.640;2023-02-28T15:08:04;7.10;99.90
51950;DHT22;37974;53.218;6.640;2023-02-28T15:10:30;7.00;99.90
51950;DHT22;37974;53.218;6.640;2023-02-28T15:15:39;7.00;99.90
51950;DHT22;37974;53.218;6.640;2023-02-28T15:18:06;7.00;99.90
51950;DHT22;37974;53.218;6.640;2023-02-28T15:20:34;6.90;99.90
51950;DHT22;37974;53.218;6.640;2023-02-28T15:23:01;6.90;99.90
51950;DHT22;37974;53.218;6.640;2023-02-28T15:25:27;6.90;99.90
51950;DHT22;37974;53.218;6.640;2023-02-28T15:27:55;6.90;99.90
51950;DHT22;37974;53.218;6.640;2023-02-28T15:30:28;6.90;99.90
51950;DHT22;37974;53.218;6.640;2023-02-28T15:33:17;6.90;99.90
51950;DHT22;37974;53.218;6.640;2023-02-28T15:35:44;6.90;99.90
51950;DHT22;37974;53.218;6.640;2023-02-28T15:38:25;6.60;99.90
51950;DHT22;37974;53.218;6.640;2023-02-28T15:40:57;6.70;99.90
51950;DHT22;37974;53.218;6.640;2023-02-28T15:43:25;6.70;99.90
51950;DHT22;37974;53.218;6.640;2023-02-28T15:45:57;6.70;99.90
51950;DHT22;37974;53.218;6.640;2023-02-28T15:48:28;6.80;99.90
51950;DHT22;37974;53.218;6.640;2023-02-28T15:50:58;6.80;99.90
51950;DHT22;37974;53.218;6.640;2023-02-28T15:53:32;6.80;99.90
51950;DHT22;37974;53.218;6.640;2023-02-28T15:56:01;6.80;99.90
51950;DHT22;37974;53.218;6.640;2023-02-28T15:58:28;6.80;99.90
51950;DHT22;37974;53.218;6.640;2023-02-28T16:01:04;6.70;99.90
51950;DHT22;37974;53.218;6.640;2023-02-28T16:03:40;6.70;99.90
51950;DHT22;37974;53.218;6.640;2023-02-28T16:08:42;6.60;99.90
51950;DHT22;37974;53.218;6.640;2023-02-28T16:11:09;6.50;99.90
51950;DHT22;37974;53.218;6.640;2023-02-28T16:13:36;6.40;99.90
51950;DHT22;37974;53.218;6.640;2023-02-28T16:16:01;6.40;99.90
51950;DHT22;37974;53.218;6.640;2023-02-28T16:18:27;6.30;99.90
51950;DHT22;37974;53.218;6.640;2023-02-28T16:20:53;6.20;99.90
51950;DHT22;37974;53.218;6.640;2023-02-28T16:23:19;6.20;99.90
51950;DHT22;37974;53.218;6.640;2023-02-28T16:25:51;6.10;99.90
51950;DHT22;37974;53.218;6.640;2023-02-28T16:28:21;6.00;99.90
51950;DHT22;37974;53.218;6.640;2023-02-28T16:30:51;6.00;99.90
51950;DHT22;37974;53.218;6.640;2023-02-28T16:33:20;5.90;99.90
51950;DHT22;37974;53.218;6.640;2023-02-28T16:35:46;5.80;99.90
51950;DHT22;37974;53.218;6.640;2023-02-28T16:38:12;5.70;99.90
51950;DHT22;37974;53.218;6.640;2023-02-28T16:40:38;5.70;99.90
51950;DHT22;37974;53.218;6.640;2023-02-28T16:43:09;5.60;99.90
51950;DHT22;37974;53.218;6.640;2023-02-28T16:45:38;5.50;99.90
51950;DHT22;37974;53.218;6.640;2023-02-28T16:48:04;5.70;99.90
51950;DHT22;37974;53.218;6.640;2023-02-28T16:50:30;5.30;99.90
51950;DHT22;37974;53.218;6.640;2023-02-28T16:52:58;5.20;99.90
51950;DHT22;37974;53.218;6.640;2023-02-28T16:55:24;5.10;99.90
51950;DHT22;37974;53.218;6.640;2023-02-28T16:57:53;5.00;99.90
51950;DHT22;37974;53.218;6.640;2023-02-28T17:00:19;4.90;99.90
51950;DHT22;37974;53.218;6.640;2023-02-28T17:02:45;4.70;99.90
51950;DHT22;37974;53.218;6.640;2023-02-28T17:05:11;4.90;99.90
51950;DHT22;37974;53.218;6.640;2023-02-28T17:07:38;4.50;99.90
51950;DHT22;37974;53.218;6.640;2023-02-28T17:10:16;4.40;99.90
51950;DHT22;37974;53.218;6.640;2023-02-28T17:12:42;4.30;99.90
51950;DHT22;37974;53.218;6.640;2023-02-28T17:15:10;4.50;99.90
51950;DHT22;37974;53.218;6.640;2023-02-28T17:17:37;4.20;99.90
51950;DHT22;37974;53.218;6.640;2023-02-28T17:20:03;4.10;99.90
51950;DHT22;37974;53.218;6.640;2023-02-28T17:22:33;4.00;99.90
51950;DHT22;37974;53.218;6.640;2023-02-28T17:25:02;3.90;99.90
51950;DHT22;37974;53.218;6.640;2023-02-28T17:27:30;3.80;99.90
51950;DHT22;37974;53.218;6.640;2023-02-28T17:29:56;3.70;99.90
51950;DHT22;37974;53.218;6.640;2023-02-28T17:32:21;3.60;99.90
51950;DHT22;37974;53.218;6.640;2023-02-28T17:34:47;3.50;99.90
51950;DHT22;37974;53.218;6.640;2023-02-28T17:37:13;3.40;99.90
51950;DHT22;37974;53.218;6.640;2023-02-28T17:39:38;3.70;99.90
51950;DHT22;37974;53.218;6.640;2023-02-28T17:42:04;3.70;99.90
51950;DHT22;37974;53.218;6.640;2023-02-28T17:44:30;3.20;99.90
51950;DHT22;37974;53.218;6.640;2023-02-28T17:46:56;2.50;99.90
51950;DHT22;37974;53.218;6.640;2023-02-28T17:49:22;3.10;99.90
51950;DHT22;37974;53.218;6.640;2023-02-28T17:51:50;2.90;99.90
51950;DHT22;37974;53.218;6.640;2023-02-28T17:54:16;2.90;99.90
51950;DHT22;37974;53.218;6.640;2023-02-28T17:56:42;2.90;99.90